createdAt,value
2022-07-25T00:00:07.705Z,8.41
2022-07-25T00:01:14.175Z,10.54
2022-07-25T00:02:19.808Z,8.89
2022-07-25T00:03:24.316Z,10.11
2022-07-25T00:04:29.982Z,9.34
2022-07-25T00:05:37.795Z,11.18
2022-07-25T00:06:39.634Z,9.89
2022-07-25T00:07:43.088Z,10.87
2022-07-25T00:08:46.963Z,12.89
2022-07-25T00:09:54.278Z,10.51
2022-07-25T00:10:57.716Z,11.91
2022-07-25T00:12:03.505Z,10.14
2022-07-25T00:13:08.871Z,9.82
2022-07-25T00:14:12.820Z,12.31
2022-07-25T00:15:16.203Z,11.50
2022-07-25T00:16:19.652Z,11.78
2022-07-25T00:18:36.588Z,12.69
2022-07-25T00:19:39.511Z,11.27
2022-07-25T00:20:43.313Z,12.24
2022-07-25T00:21:48.956Z,11.64
2022-07-25T00:22:54.460Z,12.82
2022-07-25T00:23:59.056Z,13.43
2022-07-25T00:25:10.033Z,12.21
2022-07-25T00:26:14.246Z,12.56
2022-07-25T00:27:18.867Z,13.95
2022-07-25T00:28:23.781Z,13.63
2022-07-25T00:29:27.444Z,12.84
2022-07-25T00:30:33.039Z,13.58
2022-07-25T00:31:37.093Z,12.81
2022-07-25T00:32:40.840Z,15.19
2022-07-25T00:33:44.402Z,14.21
2022-07-25T00:34:47.847Z,14.56
2022-07-25T00:35:51.916Z,13.18
2022-07-25T00:36:58.280Z,11.39
2022-07-25T00:38:02.378Z,12.33
2022-07-25T00:39:08.557Z,12.05
2022-07-25T00:40:14.455Z,13.15
2022-07-25T00:41:18.425Z,15.73
2022-07-25T00:42:25.915Z,12.69
2022-07-25T00:43:29.642Z,11.97
2022-07-25T00:44:34.478Z,14.41
2022-07-25T00:45:40.003Z,12.67
2022-07-25T00:46:42.673Z,12.26
2022-07-25T00:47:48.838Z,12.74
2022-07-25T00:48:52.420Z,13.54
2022-07-25T00:49:56.073Z,13.29
2022-07-25T00:51:03.375Z,15.08
2022-07-25T00:52:06.590Z,12.43
2022-07-25T00:53:10.347Z,13.96
2022-07-25T00:54:14.933Z,13.32
2022-07-25T00:55:22.531Z,13.65
2022-07-25T00:56:27.130Z,14.00
2022-07-25T00:57:32.371Z,14.19
2022-07-25T00:58:37.598Z,13.73
2022-07-25T00:59:42.240Z,13.78
2022-07-25T01:00:46.889Z,14.41
2022-07-25T01:01:50.140Z,16.02
2022-07-25T01:02:54.143Z,12.77
2022-07-25T01:04:01.978Z,14.06
2022-07-25T01:05:07.014Z,12.95
2022-07-25T01:06:13.163Z,14.95
2022-07-25T01:07:20.494Z,9.61
2022-07-25T01:08:24.487Z,14.51
2022-07-25T01:09:29.616Z,12.92
2022-07-25T01:11:52.096Z,14.04
2022-07-25T01:12:56.262Z,12.42
2022-07-25T01:14:03.436Z,13.15
2022-07-25T01:15:11.996Z,14.93
2022-07-25T01:16:19.364Z,12.07
2022-07-25T01:17:22.848Z,14.00
2022-07-25T01:18:26.422Z,13.38
2022-07-25T01:19:29.964Z,11.75
2022-07-25T01:20:34.409Z,11.29
2022-07-25T01:21:40.551Z,13.22
2022-07-25T01:22:46.039Z,12.14
2022-07-25T01:23:56.102Z,10.74
2022-07-25T01:24:59.773Z,13.54
2022-07-25T01:26:04.182Z,10.84
2022-07-25T01:27:07.517Z,13.08
2022-07-25T01:28:10.951Z,10.79
2022-07-25T01:29:17.488Z,12.09
2022-07-25T01:30:22.529Z,10.97
2022-07-25T01:31:29.522Z,12.03
2022-07-25T01:32:33.120Z,12.43
2022-07-25T01:33:39.661Z,16.49
2022-07-25T01:34:43.069Z,14.04
2022-07-25T01:35:50.528Z,10.99
2022-07-25T01:36:57.589Z,12.78
2022-07-25T01:38:01.583Z,13.68
2022-07-25T01:39:04.485Z,9.91
2022-07-25T01:40:09.415Z,11.11
2022-07-25T01:41:22.693Z,11.17
2022-07-25T01:42:23.107Z,11.03
2022-07-25T01:43:26.994Z,12.26
2022-07-25T01:44:30.333Z,13.72
2022-07-25T01:45:34.366Z,10.09
2022-07-25T01:46:38.413Z,11.72
2022-07-25T01:47:41.200Z,10.33
2022-07-25T01:48:44.261Z,10.71
2022-07-25T01:49:46.917Z,10.25
2022-07-25T01:50:50.553Z,12.84
2022-07-25T01:51:59.108Z,11.02
2022-07-25T01:53:03.851Z,13.19
2022-07-25T01:54:10.388Z,10.51
2022-07-25T01:55:13.538Z,9.71
2022-07-25T01:56:20.867Z,11.08
2022-07-25T01:57:30.603Z,10.53
2022-07-25T01:58:30.313Z,12.31
2022-07-25T01:59:36.818Z,12.54
2022-07-25T02:00:44.808Z,12.33
2022-07-25T02:01:48.724Z,8.98
2022-07-25T02:02:55.152Z,13.25
2022-07-25T02:03:58.598Z,11.64
2022-07-25T02:05:09.931Z,12.33
2022-07-25T02:06:14.315Z,11.35
2022-07-25T02:07:16.882Z,10.05
2022-07-25T02:08:23.518Z,12.49
2022-07-25T02:09:27.757Z,9.74
2022-07-25T02:10:31.605Z,9.74
2022-07-25T02:11:34.968Z,11.10
2022-07-25T02:12:38.749Z,12.61
2022-07-25T02:13:42.463Z,10.91
2022-07-25T02:14:46.342Z,10.70
2022-07-25T02:15:51.144Z,9.66
2022-07-25T02:16:55.671Z,10.43
2022-07-25T02:17:59.407Z,9.38
2022-07-25T02:19:07.881Z,11.26
2022-07-25T02:20:14.847Z,14.35
2022-07-25T02:21:18.591Z,10.56
2022-07-25T02:22:22.412Z,9.39
2022-07-25T02:23:27.717Z,11.09
2022-07-25T02:24:33.530Z,11.12
2022-07-25T02:25:37.460Z,10.24
2022-07-25T02:26:41.997Z,15.03
2022-07-25T02:27:45.892Z,11.83
2022-07-25T02:28:50.963Z,11.88
2022-07-25T02:29:53.978Z,13.60
2022-07-25T02:30:59.078Z,11.16
2022-07-25T02:32:05.091Z,13.09
2022-07-25T02:33:07.912Z,11.50
2022-07-25T02:34:12.350Z,10.11
2022-07-25T02:35:15.958Z,10.56
2022-07-25T02:36:22.426Z,10.80
2022-07-25T02:37:25.895Z,10.50
2022-07-25T02:38:33.315Z,12.00
2022-07-25T02:39:38.079Z,11.12
2022-07-25T02:40:41.491Z,11.27
2022-07-25T02:41:43.942Z,12.40
2022-07-25T02:42:47.420Z,11.51
2022-07-25T02:43:51.274Z,10.95
2022-07-25T02:44:56.800Z,12.69
2022-07-25T02:46:00.972Z,10.15
2022-07-25T02:47:04.328Z,11.67
2022-07-25T02:48:10.045Z,11.34
2022-07-25T02:49:16.698Z,11.45
2022-07-25T02:50:21.773Z,11.55
2022-07-25T02:51:25.803Z,12.15
2022-07-25T02:52:36.093Z,10.95
2022-07-25T02:53:56.519Z,11.22
2022-07-25T02:54:44.344Z,10.32
2022-07-25T02:55:48.144Z,10.98
2022-07-25T02:56:53.141Z,12.61
2022-07-25T02:57:56.998Z,10.94
2022-07-25T02:59:00.851Z,11.89
2022-07-25T03:00:08.101Z,11.85
2022-07-25T03:01:11.705Z,9.70
2022-07-25T03:02:15.646Z,11.60
2022-07-25T03:03:21.869Z,10.71
2022-07-25T03:04:27.067Z,13.18
2022-07-25T03:05:31.068Z,10.61
2022-07-25T03:06:35.622Z,12.30
2022-07-25T03:07:42.032Z,10.64
2022-07-25T03:08:45.760Z,11.72
2022-07-25T03:09:48.352Z,9.44
2022-07-25T03:10:53.201Z,11.14
2022-07-25T03:11:59.757Z,11.29
2022-07-25T03:13:03.769Z,12.11
2022-07-25T03:14:09.765Z,10.12
2022-07-25T03:15:15.773Z,11.81
2022-07-25T03:16:24.384Z,10.22
2022-07-25T03:17:30.259Z,10.78
2022-07-25T03:18:35.961Z,10.99
2022-07-25T03:19:40.448Z,9.42
2022-07-25T03:20:43.331Z,10.16
2022-07-25T03:21:46.833Z,10.99
2022-07-25T03:22:50.557Z,12.04
2022-07-25T03:23:54.841Z,12.39
2022-07-25T03:25:01.565Z,12.89
2022-07-25T03:26:12.795Z,11.44
2022-07-25T03:27:17.754Z,9.71
2022-07-25T03:28:20.169Z,12.51
2022-07-25T03:29:30.269Z,9.67
2022-07-25T03:30:34.091Z,10.12
2022-07-25T03:31:37.671Z,10.02
2022-07-25T03:32:44.607Z,11.32
2022-07-25T03:33:49.894Z,12.63
2022-07-25T03:34:54.486Z,10.49
2022-07-25T03:36:00.080Z,11.49
2022-07-25T03:37:08.604Z,10.99
2022-07-25T03:38:13.074Z,11.89
2022-07-25T03:39:16.996Z,9.85
2022-07-25T03:40:22.927Z,10.98
2022-07-25T03:41:29.335Z,10.52
2022-07-25T03:42:35.435Z,12.92
2022-07-25T03:43:38.036Z,12.37
2022-07-25T03:44:40.788Z,11.21
2022-07-25T03:45:45.707Z,11.16
2022-07-25T03:46:49.678Z,10.32
2022-07-25T03:47:52.577Z,12.59
2022-07-25T03:48:56.123Z,10.46
2022-07-25T03:50:03.156Z,12.93
2022-07-25T03:51:07.523Z,11.44
2022-07-25T03:52:11.388Z,10.05
2022-07-25T03:53:14.784Z,10.55
2022-07-25T03:54:19.296Z,12.93
2022-07-25T03:55:26.957Z,9.19
2022-07-25T03:56:34.691Z,13.78
2022-07-25T03:57:39.347Z,9.87
2022-07-25T03:58:41.701Z,11.28
2022-07-25T03:59:48.135Z,10.99
2022-07-25T04:00:51.995Z,12.63
2022-07-25T04:01:55.764Z,10.00
2022-07-25T04:03:00.137Z,10.68
2022-07-25T04:04:06.081Z,13.25
2022-07-25T04:05:13.720Z,10.75
2022-07-25T04:06:18.112Z,10.26
2022-07-25T04:07:22.561Z,13.16
2022-07-25T04:08:27.161Z,14.39
2022-07-25T04:09:33.646Z,14.13
2022-07-25T04:10:37.251Z,10.64
2022-07-25T04:11:40.584Z,12.60
2022-07-25T04:12:46.401Z,11.31
2022-07-25T04:13:49.331Z,11.51
2022-07-25T04:14:52.626Z,10.21
2022-07-25T04:15:57.235Z,10.66
2022-07-25T04:17:03.339Z,12.49
2022-07-25T04:18:09.257Z,10.68
2022-07-25T04:19:14.689Z,11.45
2022-07-25T04:20:20.629Z,11.68
2022-07-25T04:21:26.500Z,10.71
2022-07-25T04:22:30.425Z,12.53
2022-07-25T04:23:36.248Z,10.74
2022-07-25T04:24:40.044Z,10.62
2022-07-25T04:25:42.389Z,10.39
2022-07-25T04:26:46.093Z,12.88
2022-07-25T04:27:51.849Z,12.13
2022-07-25T04:28:54.697Z,10.70
2022-07-25T04:30:00.749Z,12.09
2022-07-25T04:31:08.862Z,9.73
2022-07-25T04:32:11.698Z,11.47
2022-07-25T04:33:14.909Z,10.59
2022-07-25T04:34:20.315Z,11.68
2022-07-25T04:35:26.612Z,10.07
2022-07-25T04:36:32.957Z,13.01
2022-07-25T04:37:37.442Z,15.01
2022-07-25T04:38:41.342Z,12.22
2022-07-25T04:39:45.919Z,11.75
2022-07-25T04:40:50.105Z,11.72
2022-07-25T04:41:52.827Z,12.15
2022-07-25T04:42:56.231Z,13.98
2022-07-25T04:44:00.925Z,10.39
2022-07-25T04:45:04.425Z,9.64
2022-07-25T04:46:10.767Z,9.56
2022-07-25T04:47:13.881Z,13.70
2022-07-25T04:48:17.518Z,13.16
2022-07-25T04:49:21.056Z,9.31
2022-07-25T04:50:26.649Z,10.81
2022-07-25T04:51:31.060Z,11.71
2022-07-25T04:52:35.440Z,9.82
2022-07-25T04:53:39.157Z,10.76
2022-07-25T04:54:43.507Z,11.02
2022-07-25T04:55:47.387Z,10.55
2022-07-25T04:56:51.573Z,11.41
2022-07-25T04:57:54.943Z,11.46
2022-07-25T04:59:06.540Z,9.10
2022-07-25T05:00:09.028Z,10.94
2022-07-25T05:01:13.651Z,9.78
2022-07-25T05:02:18.593Z,10.17
2022-07-25T05:03:23.880Z,9.33
2022-07-25T05:04:27.783Z,9.04
2022-07-25T05:05:32.018Z,9.07
2022-07-25T05:06:35.275Z,9.75
2022-07-25T05:07:46.442Z,9.81
2022-07-25T05:08:51.225Z,8.96
2022-07-25T05:09:55.429Z,8.90
2022-07-25T05:11:00.068Z,11.35
2022-07-25T05:12:06.766Z,11.22
2022-07-25T05:13:09.893Z,12.61
2022-07-25T05:14:13.391Z,9.19
2022-07-25T05:15:17.317Z,9.33
2022-07-25T05:16:21.440Z,9.70
2022-07-25T05:17:28.663Z,9.46
2022-07-25T05:18:35.665Z,9.80
2022-07-25T05:19:39.379Z,7.86
2022-07-25T05:20:43.747Z,8.68
2022-07-25T05:21:50.382Z,8.60
2022-07-25T05:22:54.482Z,8.63
2022-07-25T05:23:58.309Z,9.57
2022-07-25T05:25:04.174Z,9.80
2022-07-25T05:27:22.740Z,6.96
2022-07-25T05:28:26.421Z,7.74
2022-07-25T05:29:29.925Z,7.66
2022-07-25T05:30:39.327Z,7.47
2022-07-25T05:31:47.329Z,9.17
2022-07-25T05:32:53.222Z,8.11
2022-07-25T05:33:57.108Z,7.39
2022-07-25T05:35:00.633Z,8.25
2022-07-25T05:36:05.540Z,9.07
2022-07-25T05:37:10.024Z,6.78
2022-07-25T05:38:12.697Z,8.24
2022-07-25T05:39:18.464Z,8.31
2022-07-25T05:40:23.045Z,6.94
2022-07-25T05:41:28.043Z,6.95
2022-07-25T05:42:32.145Z,9.51
2022-07-25T05:43:35.931Z,9.58
2022-07-25T05:44:42.326Z,7.78
2022-07-25T05:45:47.737Z,7.99
2022-07-25T05:46:54.336Z,8.44
2022-07-25T05:47:59.274Z,8.13
2022-07-25T05:49:05.938Z,8.10
2022-07-25T05:50:10.466Z,8.07
2022-07-25T05:51:14.006Z,8.95
2022-07-25T05:53:35.766Z,8.74
2022-07-25T05:54:39.036Z,9.31
2022-07-25T05:55:43.611Z,12.23
2022-07-25T05:56:52.001Z,9.12
2022-07-25T05:57:57.148Z,8.84
2022-07-25T05:58:59.747Z,8.22
2022-07-25T06:00:07.387Z,11.15
2022-07-25T06:01:16.849Z,8.38
2022-07-25T06:02:20.597Z,10.20
2022-07-25T06:03:25.200Z,8.94
2022-07-25T06:04:30.916Z,7.36
2022-07-25T06:05:35.573Z,8.51
2022-07-25T06:06:39.594Z,10.54
2022-07-25T06:07:44.859Z,8.04
2022-07-25T06:08:51.341Z,8.42
2022-07-25T06:09:57.595Z,7.33
2022-07-25T06:11:09.007Z,8.85
2022-07-25T06:12:13.898Z,8.23
2022-07-25T06:13:21.002Z,7.54
2022-07-25T06:14:35.094Z,9.24
2022-07-25T06:15:42.974Z,11.47
2022-07-25T06:16:46.526Z,7.01
2022-07-25T06:17:50.295Z,8.23
2022-07-25T06:18:54.502Z,7.11
2022-07-25T06:20:01.201Z,6.66
2022-07-25T06:21:03.784Z,7.05
2022-07-25T06:22:09.978Z,7.49
2022-07-25T06:23:18.332Z,7.97
2022-07-25T06:24:21.915Z,8.11
2022-07-25T06:25:26.910Z,8.70
2022-07-25T06:26:31.468Z,9.33
2022-07-25T06:27:36.735Z,7.15
2022-07-25T06:28:42.534Z,7.02
2022-07-25T06:29:47.124Z,7.90
2022-07-25T06:30:50.093Z,7.80
2022-07-25T06:32:09.097Z,8.25
2022-07-25T06:33:13.483Z,7.32
2022-07-25T06:34:17.098Z,7.80
2022-07-25T06:35:20.808Z,8.74
2022-07-25T06:36:32.177Z,8.15
2022-07-25T06:37:32.932Z,7.86
2022-07-25T06:38:37.414Z,9.33
2022-07-25T06:39:43.841Z,7.53
2022-07-25T06:40:49.045Z,10.31
2022-07-25T06:43:06.054Z,7.34
2022-07-25T06:44:09.274Z,7.92
2022-07-25T06:45:15.873Z,9.07
2022-07-25T06:46:23.352Z,8.27
2022-07-25T06:47:27.046Z,7.49
2022-07-25T06:48:33.918Z,7.26
2022-07-25T06:49:37.709Z,9.01
2022-07-25T06:50:45.314Z,8.49
2022-07-25T06:51:51.827Z,7.85
2022-07-25T06:52:58.600Z,7.71
2022-07-25T06:54:03.926Z,7.76
2022-07-25T06:56:26.380Z,7.69
2022-07-25T06:57:31.909Z,9.25
2022-07-25T06:58:36.612Z,8.38
2022-07-25T06:59:40.310Z,9.76
2022-07-25T07:00:46.998Z,7.20
2022-07-25T07:01:51.836Z,8.24
2022-07-25T07:02:58.914Z,9.17
2022-07-25T07:04:03.079Z,8.89
2022-07-25T07:05:07.388Z,6.98
2022-07-25T07:06:13.973Z,8.70
2022-07-25T07:07:18.910Z,7.52
2022-07-25T07:08:23.679Z,8.38
2022-07-25T07:09:26.229Z,7.21
2022-07-25T07:10:30.704Z,8.24
2022-07-25T07:11:34.908Z,7.26
2022-07-25T07:12:38.239Z,10.98
2022-07-25T07:13:43.566Z,6.61
2022-07-25T07:14:48.385Z,7.67
2022-07-25T07:15:52.849Z,10.57
2022-07-25T07:16:57.659Z,7.65
2022-07-25T07:18:00.090Z,8.69
2022-07-25T07:19:06.122Z,7.05
2022-07-25T07:20:12.439Z,7.84
2022-07-25T07:21:21.396Z,10.98
2022-07-25T07:22:25.945Z,6.96
2022-07-25T07:23:30.977Z,7.79
2022-07-25T07:24:38.806Z,8.09
2022-07-25T07:25:40.965Z,7.56
2022-07-25T07:26:47.584Z,7.63
2022-07-25T07:27:52.657Z,6.56
2022-07-25T07:28:55.606Z,6.96
2022-07-25T07:30:01.049Z,7.20
2022-07-25T07:31:20.333Z,8.00
2022-07-25T07:32:10.834Z,8.17
2022-07-25T07:33:15.773Z,6.83
2022-07-25T07:34:20.786Z,7.02
2022-07-25T07:35:27.436Z,7.44
2022-07-25T07:36:32.291Z,8.12
2022-07-25T07:37:42.929Z,5.95
2022-07-25T07:38:42.811Z,6.76
2022-07-25T07:39:47.885Z,6.50
2022-07-25T07:40:52.734Z,6.67
2022-07-25T07:41:56.534Z,7.31
2022-07-25T07:43:01.943Z,9.53
2022-07-25T07:44:05.224Z,6.61
2022-07-25T07:45:17.879Z,7.31
2022-07-25T07:46:22.462Z,8.64
2022-07-25T07:47:27.138Z,7.58
2022-07-25T07:48:31.152Z,7.38
2022-07-25T07:49:36.857Z,6.29
2022-07-25T07:50:40.996Z,6.71
2022-07-25T07:51:45.069Z,6.28
2022-07-25T07:52:51.276Z,7.21
2022-07-25T07:54:14.018Z,5.82
2022-07-25T07:55:36.668Z,7.50
2022-07-25T07:56:42.020Z,5.78
2022-07-25T07:57:46.779Z,6.22
2022-07-25T07:58:50.073Z,5.77
2022-07-25T07:59:53.371Z,6.26
2022-07-25T08:00:57.504Z,9.24
2022-07-25T08:02:01.459Z,7.35
2022-07-25T08:03:10.420Z,5.79
2022-07-25T08:04:13.409Z,5.20
2022-07-25T08:06:44.160Z,6.11
2022-07-25T08:07:47.623Z,5.37
2022-07-25T08:08:51.482Z,5.26
2022-07-25T08:09:55.826Z,5.41
2022-07-25T08:11:00.491Z,4.96
2022-07-25T08:12:08.574Z,6.93
2022-07-25T08:13:24.937Z,6.86
2022-07-25T08:14:28.787Z,5.72
2022-07-25T08:15:39.202Z,6.23
2022-07-25T08:17:47.594Z,7.87
2022-07-25T08:18:51.127Z,5.13
2022-07-25T08:20:09.414Z,4.86
2022-07-25T08:21:07.068Z,6.46
2022-07-25T08:22:11.151Z,4.83
2022-07-25T08:23:14.713Z,4.77
2022-07-25T08:24:20.260Z,5.29
2022-07-25T08:25:23.802Z,5.61
2022-07-25T08:26:33.771Z,6.74
2022-07-25T08:27:39.541Z,6.35
2022-07-25T08:28:42.868Z,5.24
2022-07-25T08:29:47.697Z,4.74
2022-07-25T08:30:50.592Z,4.56
2022-07-25T08:31:53.734Z,5.17
2022-07-25T08:33:09.286Z,5.87
2022-07-25T08:34:13.374Z,5.58
2022-07-25T08:35:16.415Z,5.02
2022-07-25T08:36:21.552Z,7.03
2022-07-25T08:37:26.013Z,5.02
2022-07-25T08:38:30.254Z,5.48
2022-07-25T08:39:33.965Z,6.68
2022-07-25T08:40:38.116Z,5.02
2022-07-25T08:41:43.534Z,4.84
2022-07-25T08:42:50.049Z,6.79
2022-07-25T08:43:57.911Z,4.48
2022-07-25T08:45:05.384Z,4.77
2022-07-25T08:46:12.454Z,5.00
2022-07-25T08:47:16.572Z,5.43
2022-07-25T08:48:23.602Z,4.41
2022-07-25T08:49:30.330Z,5.82
2022-07-25T08:50:36.791Z,5.49
2022-07-25T08:51:41.557Z,4.01
2022-07-25T08:52:47.005Z,3.93
2022-07-25T08:53:54.577Z,5.34
2022-07-25T08:55:00.021Z,4.62
2022-07-25T08:56:11.535Z,4.49
2022-07-25T08:57:13.707Z,5.68
2022-07-25T08:58:18.872Z,4.64
2022-07-25T08:59:24.999Z,4.77
2022-07-25T09:00:30.938Z,4.44
2022-07-25T09:01:36.437Z,4.06
2022-07-25T09:02:40.275Z,4.66
2022-07-25T09:03:47.140Z,3.82
2022-07-25T09:04:49.547Z,3.68
2022-07-25T09:07:04.960Z,4.58
2022-07-25T09:08:16.277Z,3.73
2022-07-25T09:09:19.758Z,4.88
2022-07-25T09:10:27.689Z,3.78
2022-07-25T09:11:39.748Z,3.51
2022-07-25T09:13:06.125Z,4.37
2022-07-25T09:14:15.200Z,5.23
2022-07-25T09:15:30.036Z,4.04
2022-07-25T09:16:41.319Z,5.22
2022-07-25T09:17:50.328Z,3.94
2022-07-25T09:18:54.093Z,4.72
2022-07-25T09:19:59.155Z,5.07
2022-07-25T09:21:04.942Z,6.09
2022-07-25T09:22:10.589Z,4.11
2022-07-25T09:23:37.728Z,5.61
2022-07-25T09:24:44.973Z,6.11
2022-07-25T09:25:50.005Z,4.07
2022-07-25T09:26:55.799Z,3.75
2022-07-25T09:28:14.240Z,4.17
2022-07-25T09:30:42.404Z,4.90
2022-07-25T09:31:46.843Z,4.66
2022-07-25T09:33:01.498Z,5.70
2022-07-25T09:34:10.268Z,8.30
2022-07-25T09:35:14.552Z,4.44
2022-07-25T09:36:19.516Z,4.59
2022-07-25T09:37:25.733Z,4.63
2022-07-25T09:38:29.551Z,3.40
2022-07-25T09:39:45.956Z,4.15
2022-07-25T09:42:23.978Z,4.49
2022-07-25T09:43:40.089Z,4.42
2022-07-25T09:44:44.315Z,5.94
2022-07-25T09:45:53.719Z,3.73
2022-07-25T09:47:01.403Z,3.79
2022-07-25T09:48:09.241Z,4.43
2022-07-25T09:49:15.185Z,3.68
2022-07-25T09:50:28.441Z,4.49
2022-07-25T09:51:34.019Z,4.38
2022-07-25T09:52:39.179Z,3.86
2022-07-25T09:53:50.747Z,4.77
2022-07-25T09:54:56.983Z,3.43
2022-07-25T09:55:59.997Z,3.36
2022-07-25T09:57:03.470Z,3.60
2022-07-25T09:58:07.754Z,5.06
2022-07-25T09:59:14.310Z,4.72
2022-07-25T10:00:25.039Z,5.39
2022-07-25T10:01:35.092Z,5.32
2022-07-25T10:02:59.030Z,5.24
2022-07-25T10:04:13.775Z,3.44
2022-07-25T10:05:22.032Z,3.44
2022-07-25T10:06:46.261Z,3.54
2022-07-25T10:07:59.338Z,3.99
2022-07-25T10:09:03.087Z,6.58
2022-07-25T10:10:08.331Z,4.14
2022-07-25T10:11:32.652Z,4.16
2022-07-25T10:12:39.107Z,4.15
2022-07-25T10:13:41.800Z,4.60
2022-07-25T10:15:06.146Z,4.83
2022-07-25T10:16:20.997Z,5.30
2022-07-25T10:17:24.602Z,4.82
2022-07-25T10:18:32.400Z,4.06
2022-07-25T10:19:50.751Z,3.91
2022-07-25T10:20:56.541Z,5.33
2022-07-25T10:22:00.466Z,3.39
2022-07-25T10:23:09.141Z,3.78
2022-07-25T10:24:13.883Z,4.04
2022-07-25T10:25:20.398Z,4.88
2022-07-25T10:26:27.262Z,3.06
2022-07-25T10:27:35.289Z,5.16
2022-07-25T10:28:45.675Z,5.00
2022-07-25T10:29:55.180Z,3.86
2022-07-25T10:30:59.414Z,3.18
2022-07-25T10:32:10.524Z,3.64
2022-07-25T10:33:22.046Z,4.66
2022-07-25T10:34:33.837Z,4.26
2022-07-25T10:35:37.599Z,4.02
2022-07-25T10:36:51.161Z,5.02
2022-07-25T10:37:57.252Z,3.92
2022-07-25T10:39:03.725Z,4.28
2022-07-25T10:40:09.438Z,7.08
2022-07-25T10:41:15.936Z,3.56
2022-07-25T10:42:23.556Z,4.56
2022-07-25T10:43:28.433Z,4.17
2022-07-25T10:44:47.604Z,4.83
2022-07-25T10:45:59.591Z,4.38
2022-07-25T10:47:06.850Z,3.45
2022-07-25T10:48:16.861Z,5.16
2022-07-25T10:49:31.774Z,5.59
2022-07-25T10:50:54.800Z,3.40
2022-07-25T10:51:42.284Z,4.07
2022-07-25T10:52:53.253Z,5.63
2022-07-25T10:53:58.153Z,4.42
2022-07-25T10:55:02.283Z,3.55
2022-07-25T10:56:19.354Z,4.41
2022-07-25T10:57:26.196Z,4.98
2022-07-25T10:58:29.720Z,2.62
2022-07-25T10:59:41.805Z,4.02
2022-07-25T11:00:46.511Z,3.34
2022-07-25T11:01:52.683Z,3.57
2022-07-25T11:02:58.595Z,3.02
2022-07-25T11:04:05.409Z,2.79
2022-07-25T11:05:13.458Z,3.13
2022-07-25T11:06:36.027Z,3.88
2022-07-25T11:07:58.602Z,3.99
2022-07-25T11:08:48.922Z,4.98
2022-07-25T11:10:04.022Z,5.47
2022-07-25T11:11:11.975Z,3.97
2022-07-25T11:12:17.443Z,3.55
2022-07-25T11:13:21.126Z,3.31
2022-07-25T11:14:27.374Z,2.89
2022-07-25T11:15:30.336Z,3.34
2022-07-25T11:16:33.959Z,3.36
2022-07-25T11:17:36.940Z,3.61
2022-07-25T11:18:41.107Z,4.53
2022-07-25T11:19:56.621Z,4.14
2022-07-25T11:21:06.275Z,4.72
2022-07-25T11:22:09.336Z,4.15
2022-07-25T11:23:14.237Z,3.08
2022-07-25T11:25:33.090Z,2.87
2022-07-25T11:26:53.063Z,3.87
2022-07-25T11:27:57.607Z,3.25
2022-07-25T11:29:00.031Z,4.44
2022-07-25T11:30:15.210Z,3.90
2022-07-25T11:31:19.576Z,2.63
2022-07-25T11:32:27.146Z,3.68
2022-07-25T11:33:30.844Z,2.99
2022-07-25T11:34:38.994Z,3.01
2022-07-25T11:35:43.878Z,3.49
2022-07-25T11:36:47.480Z,2.96
2022-07-25T11:37:52.427Z,2.97
2022-07-25T11:38:59.283Z,4.79
2022-07-25T11:41:16.436Z,3.45
2022-07-25T11:42:21.077Z,2.96
2022-07-25T11:43:26.403Z,3.03
2022-07-25T11:44:44.269Z,6.14
2022-07-25T11:45:51.103Z,3.89
2022-07-25T11:46:54.758Z,6.89
2022-07-25T11:48:15.280Z,4.19
2022-07-25T11:50:35.195Z,4.17
2022-07-25T11:51:40.656Z,3.27
2022-07-25T11:52:47.656Z,3.35
2022-07-25T11:53:51.114Z,4.73
2022-07-25T11:55:23.261Z,3.40
2022-07-25T11:56:42.585Z,3.91
2022-07-25T11:57:39.573Z,4.36
2022-07-25T11:58:45.957Z,3.33
2022-07-25T11:59:49.761Z,3.79
2022-07-25T12:00:53.573Z,3.01
2022-07-25T12:02:00.071Z,3.30
2022-07-25T12:04:22.787Z,3.57
2022-07-25T12:05:29.858Z,3.83
2022-07-25T12:06:33.714Z,4.24
2022-07-25T12:07:44.961Z,4.79
2022-07-25T12:08:49.763Z,3.24
2022-07-25T12:09:58.280Z,3.34
2022-07-25T12:11:03.448Z,3.88
2022-07-25T12:12:14.823Z,3.66
2022-07-25T12:13:26.630Z,4.52
2022-07-25T12:14:35.215Z,3.39
2022-07-25T12:15:44.855Z,3.74
2022-07-25T12:16:48.851Z,5.08
2022-07-25T12:17:56.667Z,4.12
2022-07-25T12:19:00.398Z,3.23
2022-07-25T12:20:11.029Z,5.12
2022-07-25T12:21:16.293Z,3.96
2022-07-25T12:22:22.927Z,6.39
2022-07-25T12:23:27.352Z,3.47
2022-07-25T12:24:31.570Z,6.69
2022-07-25T12:25:38.101Z,3.54
2022-07-25T12:26:47.301Z,3.79
2022-07-25T12:27:51.332Z,4.52
2022-07-25T12:28:55.645Z,2.87
2022-07-25T12:30:02.084Z,2.72
2022-07-25T12:31:11.490Z,3.68
2022-07-25T12:32:21.477Z,4.29
2022-07-25T12:33:24.293Z,4.57
2022-07-25T12:34:30.925Z,3.29
2022-07-25T12:35:35.028Z,3.28
2022-07-25T12:36:40.188Z,4.48
2022-07-25T12:38:57.829Z,3.49
2022-07-25T12:40:01.479Z,3.54
2022-07-25T12:41:04.356Z,3.78
2022-07-25T12:42:11.653Z,4.99
2022-07-25T12:43:14.666Z,3.58
2022-07-25T12:44:20.829Z,4.09
2022-07-25T12:45:23.767Z,5.09
2022-07-25T12:46:30.597Z,4.09
2022-07-25T12:47:37.369Z,3.34
2022-07-25T12:48:41.132Z,3.63
2022-07-25T12:49:46.449Z,3.86
2022-07-25T12:50:50.269Z,3.56
2022-07-25T12:51:58.013Z,4.63
2022-07-25T12:52:59.239Z,3.26
2022-07-25T12:54:02.646Z,4.47
2022-07-25T12:55:11.223Z,3.86
2022-07-25T12:56:16.547Z,3.84
2022-07-25T12:57:20.678Z,2.76
2022-07-25T12:58:27.297Z,4.11
2022-07-25T12:59:30.732Z,4.14
2022-07-25T13:00:35.895Z,4.03
2022-07-25T13:01:39.383Z,3.20
2022-07-25T13:02:44.676Z,3.93
2022-07-25T13:03:48.704Z,3.61
2022-07-25T13:04:52.591Z,3.08
2022-07-25T13:05:58.880Z,3.09
2022-07-25T13:07:02.735Z,3.33
2022-07-25T13:08:06.968Z,4.54
2022-07-25T13:09:10.497Z,3.11
2022-07-25T13:10:15.749Z,4.55
2022-07-25T13:11:18.360Z,2.92
2022-07-25T13:12:24.083Z,3.09
2022-07-25T13:13:29.606Z,4.01
2022-07-25T13:14:33.219Z,2.99
2022-07-25T13:15:36.616Z,3.69
2022-07-25T13:16:41.516Z,4.43
2022-07-25T13:17:44.924Z,5.21
2022-07-25T13:18:49.805Z,4.66
2022-07-25T13:19:54.725Z,3.08
2022-07-25T13:21:01.437Z,3.70
2022-07-25T13:22:08.109Z,2.98
2022-07-25T13:23:12.014Z,2.91
2022-07-25T13:24:15.562Z,3.73
2022-07-25T13:25:21.951Z,3.78
2022-07-25T13:26:27.235Z,3.41
2022-07-25T13:27:30.927Z,4.80
2022-07-25T13:28:34.311Z,3.30
2022-07-25T13:29:37.984Z,3.32
2022-07-25T13:30:44.888Z,4.35
2022-07-25T13:31:53.168Z,4.19
2022-07-25T13:32:57.253Z,5.02
2022-07-25T13:33:59.808Z,3.71
2022-07-25T13:35:04.260Z,3.52
2022-07-25T13:36:09.569Z,2.97
2022-07-25T13:37:14.499Z,3.32
2022-07-25T13:38:21.028Z,3.13
2022-07-25T13:39:27.048Z,3.62
2022-07-25T13:40:32.747Z,3.37
2022-07-25T13:41:42.588Z,3.78
2022-07-25T13:42:46.388Z,5.08
2022-07-25T13:43:50.261Z,3.75
2022-07-25T13:44:55.491Z,5.60
2022-07-25T13:45:59.993Z,4.32
2022-07-25T13:47:03.386Z,3.33
2022-07-25T13:48:28.302Z,3.76
2022-07-25T13:49:16.068Z,4.73
2022-07-25T13:50:20.481Z,3.43
2022-07-25T13:51:23.606Z,3.44
2022-07-25T13:52:28.121Z,2.99
2022-07-25T13:53:30.958Z,3.76
2022-07-25T13:54:33.983Z,3.44
2022-07-25T13:55:39.674Z,3.58
2022-07-25T13:56:44.803Z,3.18
2022-07-25T13:57:51.907Z,3.66
2022-07-25T13:58:55.522Z,3.12
2022-07-25T14:00:01.297Z,2.97
2022-07-25T14:01:06.161Z,3.14
2022-07-25T14:02:13.307Z,3.69
2022-07-25T14:03:17.296Z,3.66
2022-07-25T14:04:20.913Z,4.95
2022-07-25T14:05:25.322Z,3.47
2022-07-25T14:06:30.182Z,2.95
2022-07-25T14:07:38.222Z,2.89
2022-07-25T14:08:42.728Z,3.27
2022-07-25T14:09:46.068Z,4.01
2022-07-25T14:12:02.153Z,2.67
2022-07-25T14:13:10.883Z,3.21
2022-07-25T14:14:14.432Z,3.52
2022-07-25T14:15:19.705Z,2.71
2022-07-25T14:16:26.794Z,3.51
2022-07-25T14:17:31.440Z,2.44
2022-07-25T14:18:36.239Z,2.42
2022-07-25T14:19:43.699Z,5.29
2022-07-25T14:20:47.419Z,2.81
2022-07-25T14:21:50.940Z,3.91
2022-07-25T14:23:02.300Z,2.51
2022-07-25T14:24:06.734Z,3.17
2022-07-25T14:25:13.118Z,2.53
2022-07-25T14:26:16.565Z,2.69
2022-07-25T14:27:20.958Z,2.38
2022-07-25T14:28:27.385Z,2.45
2022-07-25T14:29:32.050Z,2.82
2022-07-25T14:30:35.791Z,3.71
2022-07-25T14:31:42.194Z,2.81
2022-07-25T14:32:47.108Z,3.98
2022-07-25T14:33:50.481Z,2.81
2022-07-25T14:34:56.766Z,3.94
2022-07-25T14:36:00.207Z,2.43
2022-07-25T14:37:03.926Z,2.50
2022-07-25T14:38:07.703Z,2.01
2022-07-25T14:39:11.552Z,2.67
2022-07-25T14:40:19.688Z,2.62
2022-07-25T14:41:24.543Z,3.23
2022-07-25T14:42:30.495Z,2.74
2022-07-25T14:43:34.209Z,3.35
2022-07-25T14:44:45.582Z,1.81
2022-07-25T14:45:49.168Z,2.72
2022-07-25T14:46:52.823Z,2.04
2022-07-25T14:47:59.338Z,3.06